createdAt,value
2018-08-23T00:04:05.521Z,93.699997
2018-08-23T00:09:07.862Z,93.800003
2018-08-23T00:14:09.964Z,94.099998
2018-08-23T00:19:12.473Z,94
2018-08-23T00:24:14.595Z,94.300003
2018-08-23T00:29:16.856Z,94.5
2018-08-23T00:34:19.165Z,94.099998
2018-08-23T00:39:21.536Z,94
2018-08-23T00:44:23.808Z,94.199997
2018-08-23T00:49:26.069Z,94.599998
2018-08-23T00:54:28.364Z,95.099998
2018-08-23T00:59:30.689Z,95.199997
2018-08-23T01:04:32.892Z,95.400002
2018-08-23T01:09:35.236Z,95.900002
2018-08-23T01:14:37.488Z,95.699997
2018-08-23T01:19:39.749Z,96.599998
2018-08-23T01:24:42.144Z,97.099998
2018-08-23T01:29:45.871Z,96.800003
2018-08-23T01:34:46.686Z,97.300003
2018-08-23T01:39:48.972Z,97
2018-08-23T01:44:51.399Z,99.900002
2018-08-23T01:49:53.580Z,99.900002
2018-08-23T01:54:55.840Z,99.900002
2018-08-23T01:59:59.600Z,99.900002
2018-08-23T02:05:00.396Z,99.900002
2018-08-23T02:10:02.844Z,99.900002
2018-08-23T02:15:05.076Z,99.900002
2018-08-23T02:20:07.345Z,99.900002
2018-08-23T02:25:09.807Z,99.900002
2018-08-23T02:30:12.005Z,99.900002
2018-08-23T02:35:14.211Z,99.900002
2018-08-23T02:40:17.121Z,99.900002
2018-08-23T02:45:18.919Z,99.900002
2018-08-23T02:50:21.063Z,99.599998
2018-08-23T02:55:23.416Z,99.599998
2018-08-23T03:00:25.718Z,99.300003
2018-08-23T03:05:27.947Z,99.300003
2018-08-23T03:10:30.284Z,99.699997
2018-08-23T03:15:32.628Z,99.699997
2018-08-23T03:20:34.904Z,99.699997
2018-08-23T03:25:37.267Z,99.699997
2018-08-23T03:30:39.462Z,99.900002
2018-08-23T03:35:41.901Z,99.800003
2018-08-23T03:40:44.179Z,99.099998
2018-08-23T03:45:46.367Z,99.300003
2018-08-23T03:50:49.832Z,99.400002
2018-08-23T03:55:50.969Z,99.599998
2018-08-23T04:00:53.290Z,99.800003
2018-08-23T04:05:55.535Z,99.900002
2018-08-23T04:10:57.846Z,99.900002
2018-08-23T04:16:00.117Z,99.900002
2018-08-23T04:21:02.390Z,99.900002
2018-08-23T04:26:04.689Z,99.900002
2018-08-23T04:31:07.283Z,99.900002
2018-08-23T04:36:09.331Z,99.800003
2018-08-23T04:41:14.523Z,99.5
2018-08-23T04:46:13.877Z,99.699997
2018-08-23T04:51:16.127Z,99.400002
2018-08-23T04:56:18.553Z,99.300003
2018-08-23T05:01:20.794Z,99.400002
2018-08-23T05:06:22.969Z,99.300003
2018-08-23T05:11:25.334Z,98.900002
2018-08-23T05:16:27.656Z,98.900002
2018-08-23T05:21:29.894Z,99.300003
2018-08-23T05:26:33.687Z,98.900002
2018-08-23T05:31:34.759Z,98.099998
2018-08-23T05:36:37.003Z,97.800003
2018-08-23T05:41:39.186Z,98.300003
2018-08-23T05:46:41.365Z,98.5
2018-08-23T05:51:43.701Z,97.900002
2018-08-23T05:56:45.968Z,98
2018-08-23T06:01:48.338Z,97.900002
2018-08-23T06:06:50.601Z,97.699997
2018-08-23T06:11:52.918Z,97.300003
2018-08-23T06:16:55.238Z,96.699997
2018-08-23T06:21:57.415Z,96
2018-08-23T06:26:59.853Z,95.699997
2018-08-23T06:32:02.162Z,95
2018-08-23T06:37:05.699Z,94.699997
2018-08-23T06:42:06.685Z,95
2018-08-23T06:47:09.044Z,94.099998
2018-08-23T06:52:11.338Z,93.5
2018-08-23T06:57:13.481Z,92.900002
2018-08-23T07:02:15.855Z,92.300003
2018-08-23T07:12:24.662Z,92.099998
2018-08-23T07:17:27.052Z,90.5
2018-08-23T07:22:29.246Z,90.699997
2018-08-23T07:27:31.648Z,90.300003
2018-08-23T07:32:34.875Z,90.699997
2018-08-23T07:37:37.278Z,90
2018-08-23T07:42:38.456Z,89.199997
2018-08-23T07:47:40.743Z,89.099998
2018-08-23T07:52:43.031Z,89.300003
2018-08-23T07:57:45.431Z,89.400002
2018-08-23T08:02:47.618Z,89.199997
2018-08-23T08:07:49.914Z,89.199997
2018-08-23T08:12:52.230Z,89.900002
2018-08-23T08:17:54.453Z,88.900002
2018-08-23T08:22:56.882Z,89
2018-08-23T08:33:01.361Z,84.800003
2018-08-23T08:38:03.738Z,81.400002
2018-08-23T08:43:05.978Z,79.400002
2018-08-23T08:48:08.245Z,80.599998
2018-08-23T08:53:10.501Z,78.800003
2018-08-23T08:58:12.947Z,80
2018-08-23T09:03:15.144Z,79.400002
2018-08-23T09:08:17.417Z,80.400002
2018-08-23T09:13:19.889Z,80.199997
2018-08-23T09:18:22.003Z,80.599998
2018-08-23T09:23:24.295Z,81.099998
2018-08-23T09:28:26.544Z,80.099998
2018-08-23T09:33:28.924Z,80.099998
2018-08-23T09:38:31.306Z,81
2018-08-23T09:43:33.575Z,77.599998
2018-08-23T09:48:35.769Z,75
2018-08-23T09:53:38.045Z,73.300003
2018-08-23T09:58:40.378Z,72
2018-08-23T10:03:42.701Z,72.300003
2018-08-23T10:08:45.009Z,73
2018-08-23T10:13:47.318Z,73.400002
2018-08-23T10:18:49.634Z,70.699997
2018-08-23T10:23:51.952Z,70.099998
2018-08-23T10:28:55.268Z,71
2018-08-23T10:33:56.414Z,69.400002
2018-08-23T10:38:58.790Z,68.800003
2018-08-23T10:44:01.001Z,68.800003
2018-08-23T10:49:03.363Z,68.900002
2018-08-23T10:54:05.696Z,68.800003
2018-08-23T10:59:08.810Z,69.699997
2018-08-23T11:04:10.120Z,67.400002
2018-08-23T11:09:12.505Z,67
2018-08-23T11:14:14.871Z,67.699997
2018-08-23T11:19:17.136Z,60.400002
2018-08-23T11:24:19.451Z,55.5
2018-08-23T11:29:21.832Z,57.700001
2018-08-23T11:34:24.015Z,59.599998
2018-08-23T11:39:26.344Z,63.299999
2018-08-23T11:44:28.526Z,63.900002
2018-08-23T11:49:30.800Z,64.400002
2018-08-23T11:54:33.164Z,63.400002
2018-08-23T11:59:35.461Z,63.400002
2018-08-23T12:04:37.668Z,63.400002
2018-08-23T12:09:40.159Z,63.5
2018-08-23T12:14:42.382Z,62.400002
2018-08-23T12:19:44.794Z,64.599998
2018-08-23T12:24:48.770Z,65.199997
2018-08-23T12:29:49.408Z,65.800003
2018-08-23T12:34:51.657Z,65.199997
2018-08-23T12:39:53.789Z,61.799999
2018-08-23T12:44:56.064Z,60.400002
2018-08-23T12:49:58.514Z,61.400002
2018-08-23T12:55:00.730Z,61.799999
2018-08-23T13:00:02.980Z,60.400002
2018-08-23T13:05:05.299Z,61.099998
2018-08-23T13:10:07.577Z,62.5
2018-08-23T13:15:09.886Z,63
2018-08-23T13:20:12.140Z,60.599998
2018-08-23T13:25:14.458Z,62
2018-08-23T13:30:16.935Z,61.900002
2018-08-23T13:35:19.054Z,62.5
2018-08-23T13:40:21.257Z,61.200001
2018-08-23T13:45:23.725Z,62.099998
2018-08-23T13:50:25.980Z,60.700001
2018-08-23T13:55:28.198Z,61
2018-08-23T14:00:30.591Z,59.799999
2018-08-23T14:05:34.279Z,57.400002
2018-08-23T14:10:35.076Z,54.599998
2018-08-23T14:15:37.343Z,56.200001
2018-08-23T14:20:39.702Z,56.900002
2018-08-23T14:25:42.157Z,57.400002
2018-08-23T14:30:44.377Z,59
2018-08-23T14:35:46.563Z,59.799999
2018-08-23T14:40:48.880Z,57.799999
2018-08-23T14:45:51.276Z,58.400002
2018-08-23T14:55:55.784Z,59.799999
2018-08-23T15:00:58.137Z,61.099998
2018-08-23T15:06:01.690Z,58.5
2018-08-23T15:11:02.837Z,58
2018-08-23T15:16:04.872Z,58.400002
2018-08-23T15:21:07.197Z,60.099998
2018-08-23T15:26:09.612Z,58.700001
2018-08-23T15:31:11.772Z,58.599998
2018-08-23T15:36:15.198Z,59.599998
2018-08-23T15:41:16.403Z,58
2018-08-23T15:46:18.721Z,58.099998
2018-08-23T15:51:21.039Z,58.099998
2018-08-23T15:56:23.366Z,57.400002
2018-08-23T16:01:25.595Z,58.099998
2018-08-23T16:06:27.935Z,56.700001
2018-08-23T16:11:30.151Z,55.700001
2018-08-23T16:16:32.422Z,54.799999
2018-08-23T16:21:34.777Z,54.200001
2018-08-23T16:26:37.060Z,55.599998
2018-08-23T16:31:39.304Z,55.400002
2018-08-23T16:36:41.603Z,55.599998
2018-08-23T16:41:43.971Z,55.599998
2018-08-23T16:46:46.302Z,56.900002
2018-08-23T16:51:48.570Z,57.700001
2018-08-23T16:56:50.981Z,59.200001
2018-08-23T17:01:53.164Z,60.200001
2018-08-23T17:06:55.514Z,60.799999
2018-08-23T17:11:57.668Z,62
2018-08-23T17:17:00.063Z,62.200001
2018-08-23T17:22:02.219Z,62.599998
2018-08-23T17:27:04.590Z,63.200001
2018-08-23T17:32:07.036Z,63.599998
2018-08-23T17:37:09.256Z,64.199997
2018-08-23T17:42:11.463Z,64.199997
2018-08-23T17:47:13.745Z,64.5
2018-08-23T17:52:16.055Z,64.800003
2018-08-23T17:57:18.274Z,65.5
2018-08-23T18:02:20.841Z,65.800003
2018-08-23T18:07:23.282Z,66.199997
2018-08-23T18:12:25.402Z,66.300003
2018-08-23T18:17:27.519Z,66.800003
2018-08-23T18:22:30.357Z,67.099998
2018-08-23T18:27:32.161Z,67.699997
2018-08-23T18:32:34.377Z,67.800003
2018-08-23T18:37:36.856Z,68.199997
2018-08-23T18:42:39.126Z,68.199997
2018-08-23T18:47:41.218Z,68.199997
2018-08-23T18:52:43.579Z,68.5
2018-08-23T18:57:45.858Z,68.5
2018-08-23T19:02:48.359Z,69.400002
2018-08-23T19:07:50.523Z,70.300003
2018-08-23T19:12:52.767Z,70.800003
2018-08-23T19:17:55.079Z,71.199997
2018-08-23T19:22:57.389Z,71.5
2018-08-23T19:27:59.639Z,71.800003
2018-08-23T19:33:01.994Z,72
2018-08-23T19:38:04.249Z,72.5
2018-08-23T19:43:06.505Z,72.599998
2018-08-23T19:48:08.925Z,72.900002
2018-08-23T19:53:12.184Z,73.099998
2018-08-23T19:58:13.359Z,73.599998
2018-08-23T20:03:15.749Z,73.300003
2018-08-23T20:08:18.017Z,76.699997
2018-08-23T20:13:20.229Z,80
2018-08-23T20:18:22.604Z,82.300003
2018-08-23T20:23:25.013Z,83.300003
2018-08-23T20:28:27.181Z,84.699997
2018-08-23T20:33:29.411Z,85.199997
2018-08-23T20:38:31.686Z,86
2018-08-23T20:43:34.070Z,86.599998
2018-08-23T20:48:36.465Z,89.300003
2018-08-23T20:53:38.597Z,87.900002
2018-08-23T20:58:40.956Z,87.5
2018-08-23T21:03:43.274Z,88.099998
2018-08-23T21:08:45.600Z,88
2018-08-23T21:13:47.754Z,88.800003
2018-08-23T21:18:50.134Z,88.699997
2018-08-23T21:23:52.446Z,88.5
2018-08-23T21:28:54.727Z,87.300003
2018-08-23T21:33:56.999Z,87.5
2018-08-23T21:38:59.364Z,87
2018-08-23T21:44:01.681Z,87.599998
2018-08-23T21:49:03.793Z,87.599998
2018-08-23T21:54:06.724Z,88.400002
2018-08-23T21:59:08.462Z,88.300003
2018-08-23T22:04:10.748Z,88.599998
2018-08-23T22:09:13.115Z,89
2018-08-23T22:14:15.465Z,89.400002
2018-08-23T22:19:17.552Z,89.900002
2018-08-23T22:24:19.918Z,90.199997
2018-08-23T22:29:22.283Z,90.5
2018-08-23T22:34:24.539Z,91.199997
2018-08-23T22:39:32.759Z,91.900002
2018-08-23T22:44:29.124Z,92.5
2018-08-23T22:49:31.585Z,92.5
2018-08-23T22:54:33.880Z,90.599998
2018-08-23T22:59:35.953Z,86.400002
2018-08-23T23:04:38.276Z,85.300003
2018-08-23T23:09:40.587Z,85
2018-08-23T23:14:42.848Z,83.5
2018-08-23T23:19:45.238Z,83.199997
2018-08-23T23:24:47.425Z,83.5
2018-08-23T23:29:49.733Z,83.699997
2018-08-23T23:34:52.220Z,84.300003
2018-08-23T23:39:54.427Z,84.599998
2018-08-23T23:44:56.680Z,84.300003
2018-08-23T23:49:58.926Z,84.300003
2018-08-23T23:55:01.412Z,84.5
